Time;durP1;ratioP1;P1;durP2;ratioP2;P2;SDS_P1;SDS_P2;PMS_P1;PMS_P2;Temp;Humidity;BMP_temperature;BMP_pressure;BME280_temperature;BME280_humidity;BME280_pressure;Samples;Min_cycle;Max_cycle;Signal;HPM_P1;HPM_P2
2022/08/03 07:24:24;;;;;;;960.92;227.52;;;;;;;30.12;37.71;100932.72;5129306;27;20112;-59
2022/08/03 07:27:09;;;;;;;537.05;123.57;;;;;;;29.71;38.72;100931.38;5132538;27;20039;-59
2022/08/03 07:29:56;;;;;;;286.80;57.25;;;;;;;29.44;40.40;100932.91;5120750;28;20040;-59
2022/08/03 07:32:41;;;;;;;366.63;78.38;;;;;;;29.30;40.49;100923.63;5113425;28;20035;-59
2022/08/03 07:35:26;;;;;;;127.60;29.42;;;;;;;29.20;40.47;100921.09;5101639;28;20032;-59
2022/08/03 07:38:11;;;;;;;148.60;29.95;;;;;;;29.04;41.57;100921.06;5096232;28;20035;-59
2022/08/03 07:40:56;;;;;;;153.88;33.47;;;;;;;29.13;40.96;100924.03;5107846;28;20068;-59
2022/08/03 07:43:41;;;;;;;115.95;26.35;;;;;;;29.07;40.82;100920.97;5107773;28;20048;-59
2022/08/03 07:46:27;;;;;;;52.78;13.63;;;;;;;29.11;41.21;100929.28;5108276;28;20044;-58
2022/08/03 07:49:12;;;;;;;65.97;14.65;;;;;;;28.99;41.25;100933.59;5108116;28;20055;-59
2022/08/03 07:55:01;;;;;;;22.52;5.57;;;;;;;28.98;40.71;100929.22;5108266;28;20043;-59
2022/08/03 07:57:46;;;;;;;20.05;5.05;;;;;;;28.93;40.71;100938.13;5108376;28;20055;-59
2022/08/03 08:00:32;;;;;;;31.73;7.45;;;;;;;28.82;41.20;100941.16;5110977;28;20046;-59
2022/08/03 08:03:16;;;;;;;27.70;6.63;;;;;;;28.78;41.72;100936.88;5108187;28;20043;-59
2022/08/03 08:06:01;;;;;;;22.60;6.13;;;;;;;28.74;41.73;100936.97;5114093;28;20047;-59
2022/08/03 08:08:47;;;;;;;14.52;4.82;;;;;;;28.73;41.70;100929.00;5112081;28;20070;-61
2022/08/03 08:11:31;;;;;;;10.88;3.50;;;;;;;28.81;40.60;100934.00;5116461;28;20512;-60
2022/08/03 08:14:16;;;;;;;15.13;3.65;;;;;;;28.72;41.43;100933.81;5112714;28;20046;-60
2022/08/03 08:17:01;;;;;;;10.77;2.70;;;;;;;28.64;41.34;100931.56;5107560;28;20043;-60
2022/08/03 08:19:46;;;;;;;7.55;2.70;;;;;;;28.67;41.28;100934.28;5107508;28;20575;-60
2022/08/03 08:22:31;;;;;;;6.50;2.13;;;;;;;28.67;41.20;100931.50;5106897;28;20070;-60
2022/08/03 08:25:16;;;;;;;4.00;1.95;;;;;;;28.73;40.14;100929.00;5107814;28;20044;-61
2022/08/03 08:28:04;;;;;;;5.00;2.45;;;;;;;28.73;40.82;100935.38;5107603;28;20498;-59
2022/08/03 08:30:48;;;;;;;9.70;2.53;;;;;;;28.61;41.57;100927.63;5107153;28;20038;-61
2022/08/03 08:33:34;;;;;;;6.00;1.88;;;;;;;28.88;39.75;100928.25;5120569;28;20047;-61
2022/08/03 08:36:19;;;;;;;4.53;1.85;;;;;;;29.14;38.92;100925.63;5093720;28;20043;-61
2022/08/03 08:39:04;;;;;;;4.40;1.70;;;;;;;29.22;38.96;100927.03;5093920;28;20051;-59
2022/08/03 08:41:52;;;;;;;2.85;1.67;;;;;;;29.14;39.53;100934.03;5087053;28;20043;-59
2022/08/03 08:44:38;;;;;;;3.35;1.33;;;;;;;29.43;37.15;100928.53;5093752;28;20051;-59
2022/08/03 08:47:29;;;;;;;2.03;1.00;;;;;;;29.40;38.50;100927.41;5093591;28;20058;-59
2022/08/03 08:50:19;;;;;;;1.48;1.20;;;;;;;29.37;37.80;100921.88;5093819;28;20039;-59
2022/08/03 08:53:06;;;;;;;8.52;1.20;;;;;;;29.75;36.60;100923.66;5092958;28;20042;-59
2022/08/03 08:55:57;;;;;;;5.10;1.23;;;;;;;29.91;35.73;100924.88;5087325;28;20054;-59
2022/08/03 08:58:52;;;;;;;2.83;1.08;;;;;;;29.83;36.25;100934.69;5093398;28;20043;-61
2022/08/03 09:01:37;;;;;;;10.30;1.35;;;;;;;29.61;37.19;100923.25;5093230;28;20055;-59
2022/08/03 09:04:22;;;;;;;6.25;1.30;;;;;;;29.57;36.51;100922.53;5093411;28;20051;-59
2022/08/03 09:07:07;;;;;;;2.58;1.20;;;;;;;29.68;35.81;100934.28;5093364;28;20110;-59
2022/08/03 09:09:52;;;;;;;3.35;1.38;;;;;;;29.81;36.43;100934.34;5093238;28;20043;-60
2022/08/03 09:12:45;;;;;;;4.57;1.40;;;;;;;29.68;37.06;100917.44;5092955;28;20062;-60
2022/08/03 09:15:32;;;;;;;5.28;1.30;;;;;;;29.61;37.49;100929.63;5095538;28;20058;-60
2022/08/03 09:18:29;;;;;;;2.33;1.23;;;;;;;29.62;37.22;100927.63;5095118;28;20067;-59
2022/08/03 09:21:20;;;;;;;1.80;1.10;;;;;;;29.76;35.86;100918.84;5093415;28;20060;-60
2022/08/03 09:24:06;;;;;;;1.83;1.02;;;;;;;29.67;37.40;100921.47;5092938;28;20071;-61
2022/08/03 09:26:51;;;;;;;3.42;1.02;;;;;;;30.00;36.54;100911.78;5092843;28;20042;-61
2022/08/03 09:29:35;;;;;;;2.47;0.98;;;;;;;30.11;36.42;100925.53;5093469;28;20055;-61
2022/08/03 09:32:24;;;;;;;3.95;1.40;;;;;;;30.27;35.97;100922.66;5093807;28;20043;-60
2022/08/03 09:35:08;;;;;;;4.88;1.00;;;;;;;29.85;37.05;100912.59;5096226;28;20410;-60
2022/08/03 09:38:09;;;;;;;2.22;1.23;;;;;;;29.55;37.56;100911.81;5086999;28;20047;-59
2022/08/03 09:40:55;;;;;;;5.88;1.15;;;;;;;29.94;36.83;100924.00;5086535;28;20063;-59
2022/08/03 09:43:46;;;;;;;5.32;1.23;;;;;;;29.90;36.92;100914.91;5092357;28;20151;-60
2022/08/03 09:46:32;;;;;;;6.78;1.17;;;;;;;29.77;37.48;100918.38;5078922;28;20051;-59
2022/08/03 09:49:16;;;;;;;2.80;1.20;;;;;;;29.76;37.31;100910.44;5092434;28;20062;-60
2022/08/03 09:52:17;;;;;;;3.45;1.10;;;;;;;29.70;37.37;100913.00;5096826;28;20055;-59
2022/08/03 09:55:10;;;;;;;2.00;0.88;;;;;;;29.63;37.62;100907.56;5092200;28;20035;-61
2022/08/03 09:58:08;;;;;;;1.55;1.10;;;;;;;29.68;37.10;100909.84;5092250;28;20398;-59
2022/08/03 10:01:06;;;;;;;1.73;0.80;;;;;;;29.56;37.89;100907.75;5092092;28;20054;-60
2022/08/03 10:03:58;;;;;;;1.13;0.90;;;;;;;29.72;36.98;100904.13;5091623;28;20067;-60
2022/08/03 10:07:08;;;;;;;4.72;0.77;;;;;;;29.73;37.49;100906.50;5092200;28;20039;-59
2022/08/03 10:09:58;;;;;;;1.38;0.80;;;;;;;29.96;36.87;100901.91;5092134;28;20645;-60
2022/08/03 10:12:44;;;;;;;3.70;1.10;;;;;;;29.72;37.54;100902.09;5092087;28;20400;-60
2022/08/03 10:15:29;;;;;;;2.53;0.95;;;;;;;30.02;36.70;100898.09;5087332;28;20044;-60
2022/08/03 10:18:14;;;;;;;5.72;1.10;;;;;;;30.01;36.44;100890.16;5084592;28;20047;-60
2022/08/03 10:21:03;;;;;;;1.00;0.80;;;;;;;30.09;36.29;100889.47;5083130;28;20054;-60
2022/08/03 10:23:50;;;;;;;1.60;1.13;;;;;;;29.93;36.83;100895.16;5076894;28;20047;-59
2022/08/03 10:26:38;;;;;;;2.63;1.13;;;;;;;30.04;36.38;100884.41;5086167;28;20044;-59
2022/08/03 10:29:25;;;;;;;2.17;1.08;;;;;;;30.08;36.20;100887.13;5090052;28;20047;-60
2022/08/03 10:32:33;;;;;;;1.38;1.00;;;;;;;30.24;35.65;100880.66;5091298;28;20055;-59
2022/08/03 10:35:19;;;;;;;2.60;0.75;;;;;;;30.34;35.49;100880.31;5091031;28;20043;-59
2022/08/03 10:38:11;;;;;;;2.78;1.00;;;;;;;30.44;35.34;100882.03;5096055;28;20055;-59
2022/08/03 10:40:59;;;;;;;1.63;0.60;;;;;;;30.55;34.35;100874.09;5092224;28;20073;-58
2022/08/03 10:44:02;;;;;;;2.30;1.00;;;;;;;30.48;35.23;100879.91;5091202;28;20509;-60
2022/08/03 10:46:49;;;;;;;2.17;0.93;;;;;;;30.38;35.44;100871.78;5092920;28;20383;-59
2022/08/03 10:49:34;;;;;;;3.47;0.90;;;;;;;30.28;35.50;100873.69;5078314;28;20047;-60
2022/08/03 10:52:19;;;;;;;4.90;0.80;;;;;;;30.36;35.31;100863.84;5080638;28;20044;-59
2022/08/03 10:58:52;;;;;;;7.15;1.23;;;;;;;30.77;34.68;100860.16;5088646;28;20039;-59
2022/08/03 11:01:55;;;;;;;3.70;0.77;;;;;;;30.31;35.28;100861.59;5090672;28;20043;-60
2022/08/03 11:04:41;;;;;;;2.70;0.75;;;;;;;30.47;34.88;100853.09;5091000;28;20510;-60
2022/08/03 11:07:26;;;;;;;2.08;0.80;;;;;;;30.22;36.09;100852.25;5090946;28;20050;-62
2022/08/03 11:10:29;;;;;;;0.82;0.63;;;;;;;30.18;36.01;100855.94;5091114;28;20047;-59
2022/08/03 11:13:17;;;;;;;13.75;1.13;;;;;;;30.24;35.49;100861.78;5090798;28;20043;-61
2022/08/03 11:16:18;;;;;;;2.88;0.90;;;;;;;30.07;35.85;100858.28;5093561;28;20403;-61
2022/08/03 11:19:12;;;;;;;2.38;0.70;;;;;;;30.23;35.54;100849.00;5090856;28;20403;-59
2022/08/03 11:21:57;;;;;;;3.63;0.70;;;;;;;30.32;35.51;100851.94;5096098;28;20042;-61
2022/08/03 11:24:45;;;;;;;5.07;0.80;;;;;;;30.24;35.82;100847.75;5090860;28;20501;-59
2022/08/03 11:27:32;;;;;;;2.45;0.80;;;;;;;30.62;35.20;100844.22;5090922;28;20169;-61
2022/08/03 11:30:17;;;;;;;1.20;0.88;;;;;;;30.67;34.78;100843.66;5090479;28;20039;-59
2022/08/03 11:33:02;;;;;;;0.80;0.70;;;;;;;30.43;35.23;100846.75;5077197;28;20043;-61
2022/08/03 11:35:59;;;;;;;3.45;0.80;;;;;;;30.54;34.80;100841.63;5092356;28;20043;-61
2022/08/03 11:39:16;;;;;;;1.10;0.95;;;;;;;30.53;35.06;100831.63;5086181;28;20048;-61
2022/08/03 11:42:21;;;;;;;1.88;1.05;;;;;;;30.54;34.86;100835.22;5077316;28;20546;-59
2022/08/03 11:45:06;;;;;;;3.10;1.00;;;;;;;30.35;35.73;100842.63;5076805;28;20047;-59
2022/08/03 11:47:55;;;;;;;6.57;0.98;;;;;;;30.31;36.09;100841.16;5085808;28;20043;-60
2022/08/03 11:50:40;;;;;;;1.58;0.70;;;;;;;30.00;36.35;100833.25;5091493;28;20059;-59
2022/08/03 11:53:25;;;;;;;2.45;0.80;;;;;;;30.09;34.55;100829.78;5090699;28;20059;-59
2022/08/03 11:56:09;;;;;;;2.50;0.90;;;;;;;30.13;35.86;100824.84;5090237;28;20062;-60
2022/08/03 11:58:57;;;;;;;1.33;0.75;;;;;;;30.11;36.15;100818.91;5090156;28;20047;-59
2022/08/03 12:01:41;;;;;;;4.30;0.80;;;;;;;30.06;35.98;100819.47;5081217;28;20448;-60
2022/08/03 12:04:26;;;;;;;5.95;0.90;;;;;;;30.16;35.48;100812.75;5086936;28;20415;-59
2022/08/03 12:07:12;;;;;;;2.15;0.88;;;;;;;30.17;35.61;100817.13;5090364;28;20043;-59
2022/08/03 12:10:12;;;;;;;3.63;0.77;;;;;;;30.41;34.12;100807.16;5092340;28;20122;-59
2022/08/03 12:12:59;;;;;;;2.22;0.60;;;;;;;30.80;33.64;100808.72;5092650;28;20047;-59
2022/08/03 12:15:51;;;;;;;1.33;0.60;;;;;;;30.86;33.71;100811.72;5094436;28;20055;-60
2022/08/03 12:18:36;;;;;;;5.47;0.90;;;;;;;30.61;34.81;100806.16;5083460;28;20043;-60
2022/08/03 12:21:23;;;;;;;2.55;1.65;;;;;;;30.27;35.33;100793.56;5095924;28;20055;-61
2022/08/03 12:24:08;;;;;;;3.42;0.73;;;;;;;30.14;35.83;100813.19;5094100;28;20063;-60
2022/08/03 12:26:53;;;;;;;11.77;0.88;;;;;;;30.21;35.14;100808.59;5093756;28;20051;-59
2022/08/03 12:29:38;;;;;;;2.78;0.63;;;;;;;30.20;35.42;100805.00;5093821;28;20047;-60
2022/08/03 12:32:24;;;;;;;2.90;1.05;;;;;;;30.56;34.43;100805.47;5093831;28;20055;-61
2022/08/03 12:35:21;;;;;;;1.15;0.70;;;;;;;30.71;34.37;100805.81;5093931;28;20043;-59
2022/08/03 12:38:06;;;;;;;3.85;0.80;;;;;;;30.78;34.23;100804.78;5093640;28;20063;-59
2022/08/03 12:40:58;;;;;;;1.42;0.50;;;;;;;30.86;33.90;100804.09;5109017;27;20055;-59
2022/08/03 12:43:48;;;;;;;1.23;0.65;;;;;;;30.56;34.83;100804.69;5094540;28;20054;-59
2022/08/03 12:46:35;;;;;;;0.80;0.60;;;;;;;30.40;34.97;100804.78;5093393;28;20051;-61
2022/08/03 12:49:20;;;;;;;7.53;1.30;;;;;;;30.45;34.69;100805.00;5092732;28;20130;-61
2022/08/03 12:52:05;;;;;;;4.50;0.70;;;;;;;30.75;34.07;100794.44;5091212;28;20036;-60
2022/08/03 12:54:58;;;;;;;0.93;0.70;;;;;;;30.83;34.06;100799.38;5075399;28;20054;-60
2022/08/03 12:57:43;;;;;;;1.50;0.40;;;;;;;30.58;35.01;100803.00;5100287;28;20039;-59
2022/08/03 13:00:29;;;;;;;2.40;0.75;;;;;;;30.30;35.44;100787.03;5103630;22;20051;-59
2022/08/03 13:03:14;;;;;;;4.28;0.93;;;;;;;30.32;35.50;100795.81;5085462;28;20043;-57
2022/08/03 13:05:59;;;;;;;0.68;0.50;;;;;;;30.27;35.71;100796.38;5093701;28;20043;-57
2022/08/03 13:08:46;;;;;;;2.20;0.70;;;;;;;30.41;35.31;100793.13;5093410;28;20055;-57
2022/08/03 13:11:31;;;;;;;3.88;0.85;;;;;;;30.44;35.33;100786.59;5073660;28;20059;-57
2022/08/03 13:14:16;;;;;;;0.90;0.60;;;;;;;30.53;34.75;100786.72;5072945;28;20045;-57
2022/08/03 13:17:01;;;;;;;1.48;0.52;;;;;;;30.51;35.36;100791.22;5073039;28;20498;-57
2022/08/03 13:19:47;;;;;;;0.63;0.50;;;;;;;30.36;35.52;100776.84;5072943;28;20035;-57
2022/08/03 13:22:32;;;;;;;3.08;0.68;;;;;;;30.43;35.16;100779.41;5071549;28;20063;-57
2022/08/03 13:25:19;;;;;;;1.60;0.65;;;;;;;30.47;35.27;100782.94;5065024;28;20047;-57
2022/08/03 13:28:05;;;;;;;2.92;0.90;;;;;;;30.30;35.48;100775.81;5069180;28;20056;-58
2022/08/03 13:30:50;;;;;;;4.93;1.00;;;;;;;30.23;36.05;100776.03;5051631;28;20051;-57
2022/08/03 13:33:37;;;;;;;10.95;0.82;;;;;;;30.16;35.86;100770.66;5066825;28;20055;-57
2022/08/03 13:36:23;;;;;;;2.42;0.93;;;;;;;30.08;36.44;100766.50;5068773;28;20526;-57
2022/08/03 13:39:08;;;;;;;1.00;0.70;;;;;;;30.33;35.06;100763.69;5068402;28;20486;-56
2022/08/03 13:41:54;;;;;;;4.28;1.25;;;;;;;30.40;35.43;100757.84;5064703;28;20040;-56
2022/08/03 13:44:39;;;;;;;3.13;0.80;;;;;;;30.42;35.29;100761.00;5072499;28;20507;-56
2022/08/03 13:47:24;;;;;;;3.08;0.60;;;;;;;30.64;33.42;100751.88;5070323;28;20051;-56
2022/08/03 13:50:09;;;;;;;0.88;0.80;;;;;;;30.99;33.41;100759.09;5071700;28;20051;-56
2022/08/03 13:52:54;;;;;;;1.90;1.00;;;;;;;30.66;34.52;100752.25;5065658;28;20039;-57
2022/08/03 13:55:39;;;;;;;0.68;0.60;;;;;;;30.66;33.79;100744.59;5062156;28;20108;-57
2022/08/03 13:58:24;;;;;;;0.85;0.50;;;;;;;31.08;32.07;100742.38;5071629;28;20063;-59
2022/08/03 14:01:09;;;;;;;0.50;0.50;;;;;;;30.79;33.86;100738.94;5065175;28;20059;-58
2022/08/03 14:03:55;;;;;;;1.25;0.63;;;;;;;30.72;34.37;100736.41;5063836;28;20071;-57
2022/08/03 14:06:40;;;;;;;1.30;1.02;;;;;;;30.50;34.71;100736.31;5065307;28;20048;-57
2022/08/03 14:09:25;;;;;;;0.70;0.70;;;;;;;30.41;34.44;100736.97;5076264;28;20047;-58
2022/08/03 14:12:10;;;;;;;1.67;0.70;;;;;;;30.37;34.32;100735.53;5072197;28;20046;-57
2022/08/03 14:14:55;;;;;;;1.08;0.60;;;;;;;30.32;34.71;100722.84;5071758;28;20051;-57
2022/08/03 14:17:40;;;;;;;2.40;0.70;;;;;;;30.20;35.33;100720.84;5071664;28;20059;-57
2022/08/03 14:20:26;;;;;;;1.02;0.80;;;;;;;30.13;35.43;100721.03;5071567;28;20051;-57
2022/08/03 14:23:11;;;;;;;2.28;0.50;;;;;;;30.31;34.42;100724.09;5071081;28;20067;-57
2022/08/03 14:25:56;;;;;;;4.95;0.95;;;;;;;30.48;34.27;100722.72;5076821;28;20048;-57
2022/08/03 14:28:41;;;;;;;2.65;0.77;;;;;;;30.35;34.96;100710.72;5066131;28;20048;-56
2022/08/03 14:31:26;;;;;;;1.75;0.73;;;;;;;30.30;34.78;100702.88;5071655;28;20047;-56
2022/08/03 14:34:11;;;;;;;2.53;0.75;;;;;;;30.55;33.87;100708.47;5065788;28;20091;-56
2022/08/03 14:36:56;;;;;;;3.22;0.68;;;;;;;30.66;33.69;100701.69;5074975;28;20518;-57
2022/08/03 14:39:40;;;;;;;1.05;0.80;;;;;;;30.61;34.01;100710.69;5071147;28;20514;-57
2022/08/03 14:42:25;;;;;;;0.60;0.60;;;;;;;30.51;34.05;100701.41;5062820;28;20044;-57
2022/08/03 14:45:12;;;;;;;0.95;0.77;;;;;;;30.41;34.69;100696.91;5069872;28;20047;-57
2022/08/03 14:47:58;;;;;;;8.35;0.93;;;;;;;30.35;34.72;100691.06;5058711;28;20048;-56
2022/08/03 14:50:43;;;;;;;12.23;1.40;;;;;;;30.42;34.42;100690.84;5069974;28;20064;-56
2022/08/03 14:53:29;;;;;;;1.00;0.80;;;;;;;30.44;34.34;100687.56;5066664;28;20039;-57
2022/08/03 14:56:14;;;;;;;2.08;0.70;;;;;;;30.30;35.19;100688.03;5068260;28;20055;-57
2022/08/03 14:58:59;;;;;;;3.50;0.90;;;;;;;30.08;35.57;100680.31;5056856;28;20511;-57
2022/08/03 15:01:44;;;;;;;1.48;0.88;;;;;;;29.98;35.79;100675.84;5071088;28;20051;-57
2022/08/03 15:04:29;;;;;;;1.58;0.82;;;;;;;29.94;36.45;100674.38;5061283;28;20119;-57
2022/08/03 15:07:14;;;;;;;0.85;0.65;;;;;;;29.93;36.24;100672.81;5069779;28;20052;-57
2022/08/03 15:09:59;;;;;;;2.17;0.88;;;;;;;29.99;36.53;100679.44;5051752;28;20404;-58
2022/08/03 15:12:44;;;;;;;1.05;0.75;;;;;;;29.90;36.66;100668.09;5058583;28;20048;-57
2022/08/03 15:15:29;;;;;;;0.90;0.57;;;;;;;29.81;36.75;100673.56;5068387;28;20043;-57
2022/08/03 15:18:14;;;;;;;1.60;0.60;;;;;;;29.81;36.74;100667.97;5070435;28;20123;-57
2022/08/03 15:20:59;;;;;;;6.18;0.80;;;;;;;29.87;36.42;100663.38;5071749;28;20629;-57
2022/08/03 15:23:44;;;;;;;1.48;0.93;;;;;;;29.83;36.72;100665.47;5070502;28;20052;-57
2022/08/03 15:26:29;;;;;;;1.63;1.13;;;;;;;29.90;36.80;100665.31;5070211;28;20048;-57
2022/08/03 15:29:18;;;;;;;0.90;0.70;;;;;;;29.80;37.13;100653.16;5070385;28;20399;-57
2022/08/03 15:32:02;;;;;;;2.22;0.70;;;;;;;29.80;36.66;100652.38;5067268;28;20063;-56
2022/08/03 15:34:47;;;;;;;2.00;0.90;;;;;;;29.93;36.47;100653.19;5065568;28;20043;-57
2022/08/03 15:37:32;;;;;;;0.65;0.57;;;;;;;29.84;37.26;100647.44;5073373;28;20059;-57
2022/08/03 15:40:17;;;;;;;3.75;0.70;;;;;;;29.82;36.82;100644.31;5067017;28;20048;-57
2022/08/03 15:43:02;;;;;;;2.13;0.95;;;;;;;29.74;37.02;100644.53;5068603;28;20043;-57
2022/08/03 15:45:47;;;;;;;1.80;0.93;;;;;;;29.66;37.07;100643.16;5068417;28;20060;-57
2022/08/03 15:48:32;;;;;;;1.70;0.98;;;;;;;29.82;37.10;100641.50;5068911;28;20047;-62
2022/08/03 15:51:18;;;;;;;1.50;1.10;;;;;;;29.86;36.92;100637.34;5063765;28;20059;-58
2022/08/03 15:54:03;;;;;;;10.40;1.30;;;;;;;29.82;37.45;100635.91;5074082;28;20400;-63
2022/08/03 15:56:48;;;;;;;1.38;0.82;;;;;;;30.81;35.16;100635.38;5064504;28;20064;-56
2022/08/03 15:59:33;;;;;;;1.85;0.93;;;;;;;30.46;35.67;100634.56;5076000;28;20530;-57
2022/08/03 16:02:18;;;;;;;2.85;1.10;;;;;;;30.43;36.05;100633.44;5074105;28;20676;-57
2022/08/03 16:05:04;;;;;;;4.20;1.05;;;;;;;30.73;33.99;100634.06;5077901;28;20040;-57
2022/08/03 16:07:52;;;;;;;5.25;0.90;;;;;;;31.06;34.62;100632.47;5071820;28;20044;-57
2022/08/03 16:10:37;;;;;;;3.50;0.80;;;;;;;30.46;35.52;100620.53;5069214;28;20067;-57
2022/08/03 16:13:22;;;;;;;1.45;1.10;;;;;;;30.25;35.97;100618.47;5064062;28;20052;-57
2022/08/03 16:16:07;;;;;;;1.33;1.10;;;;;;;30.15;36.72;100617.59;5067268;28;20036;-57
2022/08/03 16:18:52;;;;;;;1.70;0.80;;;;;;;30.05;36.51;100613.13;5069663;28;20059;-57
2022/08/03 16:21:37;;;;;;;2.67;0.70;;;;;;;30.02;37.20;100609.19;5076304;28;20043;-57
2022/08/03 16:24:23;;;;;;;2.40;1.08;;;;;;;30.09;36.77;100620.19;5074618;28;20067;-58
2022/08/03 16:27:08;;;;;;;5.97;1.23;;;;;;;30.82;34.22;100614.47;5073939;28;20503;-57
2022/08/03 16:29:53;;;;;;;7.70;1.00;;;;;;;31.15;34.19;100621.28;5071319;28;20047;-57
2022/08/03 16:32:38;;;;;;;1.70;1.13;;;;;;;31.04;34.55;100618.09;5073262;28;20043;-57
2022/08/03 16:35:23;;;;;;;2.42;1.05;;;;;;;31.12;34.08;100607.38;5065372;28;20407;-57
2022/08/03 16:38:10;;;;;;;1.52;0.77;;;;;;;30.59;35.54;100613.66;5078258;28;20047;-57
2022/08/03 16:40:54;;;;;;;3.08;1.08;;;;;;;30.73;34.29;100622.84;5073656;28;20055;-56
2022/08/03 16:43:39;;;;;;;5.78;1.15;;;;;;;31.08;33.27;100615.16;5073213;28;20043;-56
2022/08/03 16:46:24;;;;;;;6.32;1.20;;;;;;;31.54;32.43;100608.56;5073715;28;20047;-56
2022/08/03 16:49:10;;;;;;;1.30;0.90;;;;;;;31.57;32.40;100607.63;5073729;28;20047;-56
2022/08/03 16:51:55;;;;;;;2.63;1.10;;;;;;;31.04;34.28;100612.47;5074230;28;20062;-56
2022/08/03 16:54:40;;;;;;;5.25;1.08;;;;;;;30.94;34.36;100605.19;5072359;28;20510;-56
2022/08/03 16:57:25;;;;;;;7.57;1.00;;;;;;;31.53;33.28;100612.59;5068218;28;20055;-56
2022/08/03 17:00:12;;;;;;;3.50;0.80;;;;;;;31.49;33.01;100603.53;5072794;28;20122;-56
2022/08/03 17:02:58;;;;;;;1.55;1.15;;;;;;;31.80;32.40;100611.94;5070898;28;20047;-56
2022/08/03 17:05:43;;;;;;;1.50;0.70;;;;;;;31.71;32.40;100606.28;5068291;28;20044;-57
2022/08/03 17:08:28;;;;;;;0.75;0.70;;;;;;;31.19;34.18;100605.06;5072553;28;20043;-56
2022/08/03 17:11:13;;;;;;;1.20;0.90;;;;;;;31.00;34.50;100614.59;5069839;28;20043;-56
2022/08/03 17:14:01;;;;;;;1.92;0.80;;;;;;;30.73;35.00;100608.81;5075995;28;20055;-56
2022/08/03 17:16:47;;;;;;;1.88;0.80;;;;;;;31.03;34.35;100605.31;5081043;28;20047;-56
2022/08/03 17:19:38;;;;;;;8.27;0.90;;;;;;;30.58;35.66;100614.13;5067475;28;20376;-58
2022/08/03 17:22:33;;;;;;;3.65;1.00;;;;;;;31.14;34.01;100611.28;5065256;28;20059;-55
2022/08/03 17:25:18;;;;;;;1.60;1.00;;;;;;;31.36;32.79;100611.25;5071178;28;20055;-55
2022/08/03 17:28:04;;;;;;;1.58;0.77;;;;;;;31.43;32.91;100613.81;5073036;28;20047;-55
2022/08/03 17:33:53;;;;;;;3.20;0.90;;;;;;;31.46;33.81;100623.31;5074857;28;20115;-55
2022/08/03 17:36:37;;;;;;;3.25;0.88;;;;;;;31.34;33.78;100627.81;5067400;28;20043;-55
2022/08/03 17:39:23;;;;;;;1.40;0.75;;;;;;;31.27;34.39;100622.44;5065760;28;20044;-55
2022/08/03 17:42:10;;;;;;;5.55;1.00;;;;;;;31.23;34.34;100613.38;5066065;28;20055;-55
2022/08/03 17:44:56;;;;;;;4.00;1.23;;;;;;;31.25;33.82;100625.72;5066497;28;20043;-55
2022/08/03 17:47:40;;;;;;;2.05;1.30;;;;;;;31.13;34.20;100620.19;5059623;28;20040;-57
2022/08/03 17:50:42;;;;;;;2.60;1.17;;;;;;;31.08;34.09;100632.81;5054337;28;20416;-56
2022/08/03 17:53:32;;;;;;;3.20;0.60;;;;;;;31.03;34.06;100629.81;5072389;28;20411;-56
2022/08/03 17:56:26;;;;;;;0.82;0.70;;;;;;;30.99;34.07;100630.66;5071062;28;20519;-56
2022/08/03 17:59:16;;;;;;;0.90;0.65;;;;;;;30.92;34.37;100632.97;5073919;28;20059;-57
2022/08/03 18:05:26;;;;;;;2.13;1.00;;;;;;;30.11;36.75;100642.19;5066249;28;20072;-57
2022/08/03 18:08:17;;;;;;;4.88;1.10;;;;;;;29.94;36.83;100635.13;5060877;28;20047;-57
2022/08/03 18:11:11;;;;;;;1.50;0.70;;;;;;;29.84;37.73;100636.22;5066796;28;20423;-57
2022/08/03 18:14:11;;;;;;;1.98;1.10;;;;;;;29.95;37.21;100631.09;5066146;28;20052;-57
2022/08/03 18:17:02;;;;;;;3.42;0.85;;;;;;;29.96;36.61;100635.47;5059130;28;20047;-57
2022/08/03 18:19:48;;;;;;;3.10;0.90;;;;;;;29.93;37.38;100639.16;5058428;28;20047;-58
2022/08/03 18:22:33;;;;;;;11.18;1.05;;;;;;;29.82;38.10;100633.84;5081394;28;20051;-58
2022/08/03 18:25:19;;;;;;;9.88;1.50;;;;;;;29.76;38.96;100630.81;5055332;28;20044;-57
2022/08/03 18:28:05;;;;;;;4.38;1.38;;;;;;;29.60;40.01;100636.56;5052256;28;20048;-57
2022/08/03 18:30:51;;;;;;;5.07;1.35;;;;;;;29.46;40.89;100639.78;5058361;28;20044;-57
2022/08/03 18:33:38;;;;;;;4.38;1.20;;;;;;;29.24;41.31;100630.44;5071648;28;20056;-58
2022/08/03 18:36:23;;;;;;;6.38;0.82;;;;;;;29.09;40.68;100638.47;5071390;28;20111;-57
2022/08/03 18:39:09;;;;;;;1.52;1.00;;;;;;;29.04;41.18;100629.81;5071345;28;20051;-57
2022/08/03 18:41:54;;;;;;;2.10;1.17;;;;;;;28.98;41.23;100637.19;5060454;28;20048;-57
2022/08/03 18:44:39;;;;;;;8.80;1.17;;;;;;;28.86;41.72;100635.91;5050975;28;20055;-57
2022/08/03 18:47:41;;;;;;;6.43;0.98;;;;;;;28.81;42.63;100639.25;5069761;28;20039;-57
2022/08/03 18:50:32;;;;;;;6.60;1.65;;;;;;;28.78;44.64;100640.13;5069178;28;20056;-57
2022/08/03 18:53:17;;;;;;;3.67;1.40;;;;;;;28.73;44.39;100638.66;5064678;28;20044;-57
2022/08/03 18:56:22;;;;;;;7.18;1.17;;;;;;;28.68;44.63;100633.56;5065658;28;20044;-57
2022/08/03 18:59:49;;;;;;;7.35;1.02;;;;;;;28.70;45.70;100639.50;5054374;28;20056;-57
2022/08/03 19:02:40;;;;;;;7.70;1.40;;;;;;;28.70;46.80;100642.28;5061468;22;20072;-57
2022/08/03 19:05:29;;;;;;;8.13;1.40;;;;;;;28.69;47.54;100643.56;5049598;28;20404;-56
2022/08/03 19:08:18;;;;;;;5.63;1.25;;;;;;;28.62;46.96;100640.13;5048309;28;20068;-58
2022/08/03 19:11:08;;;;;;;10.07;1.50;;;;;;;28.62;46.37;100642.94;5032820;28;20044;-58
2022/08/03 19:13:55;;;;;;;5.40;1.52;;;;;;;28.59;46.40;100650.22;5049315;28;20056;-57
2022/08/03 19:16:44;;;;;;;3.00;1.15;;;;;;;28.60;46.33;100646.16;5052439;28;20064;-56
2022/08/03 19:19:30;;;;;;;4.93;1.08;;;;;;;28.63;46.72;100647.31;5039957;28;20112;-56
2022/08/03 19:22:19;;;;;;;1.52;1.05;;;;;;;28.61;47.44;100653.34;5046860;28;20108;-56
2022/08/03 19:25:06;;;;;;;4.10;1.13;;;;;;;28.67;47.59;100657.19;5051321;28;20056;-56
2022/08/03 19:27:51;;;;;;;7.50;1.42;;;;;;;28.66;48.38;100655.59;5044264;28;20399;-56
2022/08/03 19:30:38;;;;;;;6.35;1.20;;;;;;;28.63;48.71;100662.09;5052669;28;20072;-58
2022/08/03 19:33:25;;;;;;;6.25;1.17;;;;;;;28.62;48.58;100666.13;5048435;28;20044;-56
2022/08/03 19:36:13;;;;;;;2.45;1.17;;;;;;;28.67;46.67;100668.38;5047127;28;20554;-56
2022/08/03 19:39:01;;;;;;;3.42;1.38;;;;;;;28.60;47.74;100668.56;5042094;28;20044;-56
2022/08/03 19:41:49;;;;;;;4.35;1.02;;;;;;;28.61;48.16;100667.34;5043898;28;20048;-57
2022/08/03 19:44:39;;;;;;;4.20;1.35;;;;;;;28.64;48.55;100674.09;5041794;28;20040;-56
2022/08/03 19:47:30;;;;;;;2.20;0.98;;;;;;;28.57;48.86;100668.66;5047103;28;20048;-56
2022/08/03 19:50:18;;;;;;;2.40;0.90;;;;;;;28.38;49.17;100675.94;5066845;28;20048;-58
2022/08/03 19:53:09;;;;;;;2.40;0.80;;;;;;;28.20;49.26;100679.16;5050556;28;20063;-56
2022/08/03 19:55:56;;;;;;;4.90;1.10;;;;;;;28.15;49.98;100681.69;5034444;28;20044;-56
2022/08/03 19:58:42;;;;;;;2.17;1.67;;;;;;;28.09;49.45;100681.41;5049905;28;20513;-58
2022/08/03 20:01:27;;;;;;;1.83;1.00;;;;;;;28.02;49.56;100689.97;5049703;28;21413;-56
2022/08/03 20:04:13;;;;;;;8.45;1.90;;;;;;;28.03;46.91;100692.34;5049195;28;20059;-56
2022/08/03 20:06:59;;;;;;;5.78;1.40;;;;;;;28.06;48.45;100696.25;5050344;28;20060;-56
2022/08/03 20:09:45;;;;;;;5.93;1.38;;;;;;;28.07;48.29;100693.03;5050313;28;20411;-57
2022/08/03 20:12:32;;;;;;;4.07;1.20;;;;;;;28.09;48.25;100689.78;5043296;28;20432;-56
2022/08/03 20:15:18;;;;;;;2.42;1.17;;;;;;;28.14;47.98;100696.94;5047653;28;20052;-57
2022/08/03 20:18:02;;;;;;;4.55;1.45;;;;;;;28.11;48.40;100692.94;5049990;28;20051;-56
2022/08/03 20:20:51;;;;;;;9.07;1.50;;;;;;;27.95;47.10;100695.72;5040417;28;20415;-57
2022/08/03 20:23:38;;;;;;;8.88;2.17;;;;;;;28.04;48.51;100702.28;5034336;28;20688;-56
2022/08/03 20:26:27;;;;;;;9.35;1.80;;;;;;;28.11;47.77;100694.94;5032420;28;20044;-56
2022/08/03 20:29:12;;;;;;;11.80;1.30;;;;;;;28.06;47.32;100697.06;5035587;28;20045;-56
2022/08/03 20:31:57;;;;;;;26.98;2.80;;;;;;;27.96;46.91;100705.69;5037998;28;20503;-56
2022/08/03 20:34:43;;;;;;;11.15;1.50;;;;;;;27.93;47.11;100704.56;5041209;28;20407;-57